Basswood, Minnesota
Current Conditions -  °F | °C
As of 4:53 AM on Sunday 23 Nov 2014 (Local Time) from KADC Reporting Station
Haze Haze  
Wind Chill: 34°   Ceiling: Unl
Heat Index: 34°   Visibility: 2.5mi
Dew Point: 34°   Wind: 3mph
Humidity: 100%   Direction: 240°WSW
Pressure: 29.38"   Gusts: NA
Location:  46.4997°N, 95.5993°W
Report Text: KADC 231053Z AUTO 24003KT 2 1/2SM BR SCT120 01/01 A2938 RMK AO2
Loading
Personal Weather Stations






























Interactive Weather Map New forecast layout! Learn more

10-Day Weather Forecast

Advertisements
Track Severe Weather on mobile